Impacts TAF Board
For situational awareness. Not to be used for flight planning purposes.
IDs:

KCLT - Charlotte/Douglas In, NC, US

Issued at 1135 UTC 10 Aug 2022
Updated at 1350 UTC 10 Aug 2022
Potential Impact None Slight Moderate High
Time1252Z 10/14Z 10/15Z 10/16Z 10/17Z 10/18Z 10/19Z 10/20Z 10/21Z 10/22Z 10/23Z 11/00Z 11/01Z 11/02Z>>
Type OBS PRVL PRVL PRVL PRVL PRVL PRVL PRVL PRVL
  [TEMP]  
PRVL
  [TEMP]  
PRVL
  [TEMP]  
PRVL
  [TEMP]  
PRVL PRVL
VIS 10 >6 >6 >6 >6 >6 >6 >6 >6
  [4]  
>6
  [4]  
>6
  [4]  
>6
  [4]  
>6 >6
CIG 250 -- -- -- -- -- -- 35 35
  [25]  
35
  [25]  
35
  [25]  
35
  [25]  
35 35
Cover BKN SCT FEW FEW FEW FEW FEW BKN BKN
  [OVC]  
BKN
  [OVC]  
BKN
  [OVC]  
BKN
  [OVC]  
BKN BKN
FltCat VFR VFR VFR VFR VFR VFR VFR VFR VFR
  [MVFR]  
VFR
  [MVFR]  
VFR
  [MVFR]  
VFR
  [MVFR]  
VFR VFR
WX -- -- -- -- -- -- -- -- --
  [TSRA BR]  
--
  [TSRA BR]  
--
  [TSRA BR]  
--
  [TSRA BR]  
-- --
WDir 240 250 230 230 230 230 230 240 240
[240]
240
[240]
240
[240]
240
[240]
260 260
WSpd 6 3 7 7 7 7 7 8 8
  [8]  
8
  [8]  
8
  [8]  
8
  [8]  
5 5
WGst -- -- -- -- -- -- -- -- --
  [--]  
--
  [--]  
--
  [--]  
--
  [--]  
-- --
WSHgt -- -- -- -- -- -- -- -- --
[--]
--
[--]
--
[--]
--
[--]
-- --
WSDir -- -- -- -- -- -- -- -- --
[--]
--
[--]
--
[--]
--
[--]
-- --
WSSpd -- -- -- -- -- -- -- -- --
[--]
--
[--]
--
[--]
--
[--]
-- --
Raw TAF
KCLT 101135Z 1012/1118 25003KT P6SM SCT250
  FM101500 23007KT P6SM FEW025 FEW250
  FM102000 24008KT P6SM BKN035
  TEMPO 1021/1101 4SM TSRA BR OVC025CB
  FM110100 26005KT P6SM BKN035
  FM110500 24003KT P6SM BKN190
  FM111500 26006KT P6SM BKN060
  PROB30 1115/1118 4SM TSRA BR OVC025CB


Raw METAR
KCLT 101252Z 24006KT 10SM SCT110 SCT200 BKN250 26/22 A3019 RMK SLP211 T02610217
KCLT 101152Z 22004KT 10SM FEW130 SCT200 BKN250 24/21 A3017 RMK SLP208 T02440211 10244 20222 53013
KCLT 101052Z 00000KT 10SM FEW200 SCT250 22/21 A3016 RMK SLP204 T02220206

METAR Board
Radar Display
Forecast Discussion
For situational awareness. Not to be used for flight planning purposes.